sensor_id;sensor_type;location;lat;lon;timestamp;P1;durP1;ratioP1;P2;durP2;ratioP2
11771;SDS011;12556;55.748;13.194;2024-01-25T00:01:06;19.40;;;5.87;;
11771;SDS011;12556;55.748;13.194;2024-01-25T00:03:33;28.57;;;7.73;;
11771;SDS011;12556;55.748;13.194;2024-01-25T00:06:01;22.53;;;5.87;;
11771;SDS011;12556;55.748;13.194;2024-01-25T00:08:28;24.87;;;6.63;;
11771;SDS011;12556;55.748;13.194;2024-01-25T00:10:55;30.10;;;6.57;;
11771;SDS011;12556;55.748;13.194;2024-01-25T00:13:22;26.50;;;6.57;;
11771;SDS011;12556;55.748;13.194;2024-01-25T00:15:49;24.20;;;6.33;;
11771;SDS011;12556;55.748;13.194;2024-01-25T00:18:17;24.17;;;6.43;;
11771;SDS011;12556;55.748;13.194;2024-01-25T00:20:43;24.00;;;5.90;;
11771;SDS011;12556;55.748;13.194;2024-01-25T00:23:12;17.33;;;5.37;;
11771;SDS011;12556;55.748;13.194;2024-01-25T00:25:39;22.60;;;5.70;;
11771;SDS011;12556;55.748;13.194;2024-01-25T00:28:06;21.27;;;5.93;;
11771;SDS011;12556;55.748;13.194;2024-01-25T00:30:32;26.97;;;5.93;;
11771;SDS011;12556;55.748;13.194;2024-01-25T00:32:59;20.97;;;5.30;;
11771;SDS011;12556;55.748;13.194;2024-01-25T00:35:27;22.40;;;6.27;;
11771;SDS011;12556;55.748;13.194;2024-01-25T00:37:54;21.70;;;5.97;;
11771;SDS011;12556;55.748;13.194;2024-01-25T00:40:23;20.30;;;5.90;;
11771;SDS011;12556;55.748;13.194;2024-01-25T00:42:50;28.90;;;6.03;;
11771;SDS011;12556;55.748;13.194;2024-01-25T00:45:19;21.97;;;5.60;;
11771;SDS011;12556;55.748;13.194;2024-01-25T00:47:46;26.90;;;5.67;;
11771;SDS011;12556;55.748;13.194;2024-01-25T00:50:13;31.10;;;6.50;;
11771;SDS011;12556;55.748;13.194;2024-01-25T00:52:42;21.57;;;5.87;;
11771;SDS011;12556;55.748;13.194;2024-01-25T00:55:10;21.80;;;5.83;;
11771;SDS011;12556;55.748;13.194;2024-01-25T00:57:39;26.67;;;6.67;;
11771;SDS011;12556;55.748;13.194;2024-01-25T01:00:07;22.33;;;6.20;;
11771;SDS011;12556;55.748;13.194;2024-01-25T01:02:35;23.83;;;6.37;;
11771;SDS011;12556;55.748;13.194;2024-01-25T01:05:06;25.87;;;6.73;;
11771;SDS011;12556;55.748;13.194;2024-01-25T01:07:34;23.53;;;6.83;;
11771;SDS011;12556;55.748;13.194;2024-01-25T01:10:01;32.13;;;6.43;;
11771;SDS011;12556;55.748;13.194;2024-01-25T01:12:28;20.63;;;6.47;;
11771;SDS011;12556;55.748;13.194;2024-01-25T01:14:56;22.93;;;5.87;;
11771;SDS011;12556;55.748;13.194;2024-01-25T01:17:23;32.80;;;7.30;;
11771;SDS011;12556;55.748;13.194;2024-01-25T01:19:49;24.50;;;6.70;;
11771;SDS011;12556;55.748;13.194;2024-01-25T01:22:16;22.67;;;6.60;;
11771;SDS011;12556;55.748;13.194;2024-01-25T01:24:43;26.80;;;6.40;;
11771;SDS011;12556;55.748;13.194;2024-01-25T01:27:10;27.07;;;6.23;;
11771;SDS011;12556;55.748;13.194;2024-01-25T01:29:37;25.70;;;6.67;;
11771;SDS011;12556;55.748;13.194;2024-01-25T01:32:05;21.70;;;6.23;;
11771;SDS011;12556;55.748;13.194;2024-01-25T01:34:32;26.40;;;6.97;;
11771;SDS011;12556;55.748;13.194;2024-01-25T01:36:59;26.20;;;6.27;;
11771;SDS011;12556;55.748;13.194;2024-01-25T01:39:25;27.67;;;6.70;;
11771;SDS011;12556;55.748;13.194;2024-01-25T01:41:52;26.00;;;7.33;;
11771;SDS011;12556;55.748;13.194;2024-01-25T01:44:19;26.33;;;6.43;;
11771;SDS011;12556;55.748;13.194;2024-01-25T01:46:46;25.83;;;7.13;;
11771;SDS011;12556;55.748;13.194;2024-01-25T01:49:16;31.20;;;7.30;;
11771;SDS011;12556;55.748;13.194;2024-01-25T01:51:43;30.23;;;7.53;;
11771;SDS011;12556;55.748;13.194;2024-01-25T01:54:11;32.20;;;7.60;;
11771;SDS011;12556;55.748;13.194;2024-01-25T01:56:38;28.03;;;6.73;;
11771;SDS011;12556;55.748;13.194;2024-01-25T01:59:08;22.23;;;6.87;;
11771;SDS011;12556;55.748;13.194;2024-01-25T02:01:36;25.27;;;6.33;;
11771;SDS011;12556;55.748;13.194;2024-01-25T02:04:03;29.67;;;6.77;;
11771;SDS011;12556;55.748;13.194;2024-01-25T02:06:32;27.30;;;7.10;;
11771;SDS011;12556;55.748;13.194;2024-01-25T02:08:59;20.50;;;6.70;;
11771;SDS011;12556;55.748;13.194;2024-01-25T02:11:26;25.77;;;7.43;;
11771;SDS011;12556;55.748;13.194;2024-01-25T02:13:55;25.37;;;7.23;;
11771;SDS011;12556;55.748;13.194;2024-01-25T02:16:22;34.13;;;7.40;;
11771;SDS011;12556;55.748;13.194;2024-01-25T02:18:49;28.03;;;8.03;;
11771;SDS011;12556;55.748;13.194;2024-01-25T02:21:19;32.20;;;7.10;;
11771;SDS011;12556;55.748;13.194;2024-01-25T02:23:47;23.63;;;6.67;;
11771;SDS011;12556;55.748;13.194;2024-01-25T02:26:14;26.43;;;6.87;;
11771;SDS011;12556;55.748;13.194;2024-01-25T02:28:41;23.73;;;6.90;;
11771;SDS011;12556;55.748;13.194;2024-01-25T02:31:07;20.53;;;6.47;;
11771;SDS011;12556;55.748;13.194;2024-01-25T02:33:34;28.60;;;6.90;;
11771;SDS011;12556;55.748;13.194;2024-01-25T02:36:01;19.23;;;6.00;;
11771;SDS011;12556;55.748;13.194;2024-01-25T02:38:28;27.87;;;6.80;;
11771;SDS011;12556;55.748;13.194;2024-01-25T02:40:56;28.73;;;6.33;;
11771;SDS011;12556;55.748;13.194;2024-01-25T02:43:23;27.50;;;6.53;;
11771;SDS011;12556;55.748;13.194;2024-01-25T02:45:50;28.87;;;7.87;;
11771;SDS011;12556;55.748;13.194;2024-01-25T02:48:17;24.63;;;6.83;;
11771;SDS011;12556;55.748;13.194;2024-01-25T02:50:44;18.50;;;5.77;;
11771;SDS011;12556;55.748;13.194;2024-01-25T02:53:10;17.83;;;6.07;;
11771;SDS011;12556;55.748;13.194;2024-01-25T02:55:37;23.90;;;6.20;;
11771;SDS011;12556;55.748;13.194;2024-01-25T02:58:06;19.97;;;6.33;;
11771;SDS011;12556;55.748;13.194;2024-01-25T03:00:33;26.27;;;7.10;;
11771;SDS011;12556;55.748;13.194;2024-01-25T03:02:59;31.03;;;7.17;;
11771;SDS011;12556;55.748;13.194;2024-01-25T03:05:26;25.43;;;6.57;;
11771;SDS011;12556;55.748;13.194;2024-01-25T03:07:53;23.40;;;6.87;;
11771;SDS011;12556;55.748;13.194;2024-01-25T03:10:20;28.07;;;5.97;;
11771;SDS011;12556;55.748;13.194;2024-01-25T03:12:46;25.90;;;6.63;;
11771;SDS011;12556;55.748;13.194;2024-01-25T03:15:15;24.50;;;6.23;;
11771;SDS011;12556;55.748;13.194;2024-01-25T03:17:42;21.53;;;5.93;;
11771;SDS011;12556;55.748;13.194;2024-01-25T03:20:09;24.70;;;7.20;;
11771;SDS011;12556;55.748;13.194;2024-01-25T03:22:36;21.60;;;6.57;;
11771;SDS011;12556;55.748;13.194;2024-01-25T03:25:03;22.67;;;6.37;;
11771;SDS011;12556;55.748;13.194;2024-01-25T03:27:30;21.77;;;6.63;;
11771;SDS011;12556;55.748;13.194;2024-01-25T03:29:57;24.27;;;5.97;;
11771;SDS011;12556;55.748;13.194;2024-01-25T03:32:25;23.47;;;5.33;;
11771;SDS011;12556;55.748;13.194;2024-01-25T03:34:52;23.50;;;6.20;;
11771;SDS011;12556;55.748;13.194;2024-01-25T03:37:19;21.10;;;6.40;;
11771;SDS011;12556;55.748;13.194;2024-01-25T03:39:46;25.70;;;7.60;;
11771;SDS011;12556;55.748;13.194;2024-01-25T03:42:12;29.60;;;6.87;;
11771;SDS011;12556;55.748;13.194;2024-01-25T03:44:39;26.67;;;6.67;;
11771;SDS011;12556;55.748;13.194;2024-01-25T03:47:07;24.60;;;5.73;;
11771;SDS011;12556;55.748;13.194;2024-01-25T03:49:36;29.17;;;6.67;;
11771;SDS011;12556;55.748;13.194;2024-01-25T03:52:03;29.17;;;6.70;;
11771;SDS011;12556;55.748;13.194;2024-01-25T03:54:30;23.57;;;7.23;;
11771;SDS011;12556;55.748;13.194;2024-01-25T03:56:57;28.67;;;6.07;;
11771;SDS011;12556;55.748;13.194;2024-01-25T03:59:24;25.70;;;6.20;;
11771;SDS011;12556;55.748;13.194;2024-01-25T04:01:51;18.30;;;5.57;;
11771;SDS011;12556;55.748;13.194;2024-01-25T04:04:17;24.43;;;5.87;;
11771;SDS011;12556;55.748;13.194;2024-01-25T04:06:46;24.53;;;6.17;;
11771;SDS011;12556;55.748;13.194;2024-01-25T04:09:13;24.93;;;7.10;;
11771;SDS011;12556;55.748;13.194;2024-01-25T04:11:40;27.83;;;6.73;;
11771;SDS011;12556;55.748;13.194;2024-01-25T04:14:07;22.90;;;6.87;;
11771;SDS011;12556;55.748;13.194;2024-01-25T04:16:34;25.77;;;6.37;;
11771;SDS011;12556;55.748;13.194;2024-01-25T04:19:01;29.67;;;6.27;;
11771;SDS011;12556;55.748;13.194;2024-01-25T04:21:28;19.83;;;6.73;;
11771;SDS011;12556;55.748;13.194;2024-01-25T04:23:56;19.87;;;6.17;;
11771;SDS011;12556;55.748;13.194;2024-01-25T04:26:23;19.63;;;6.40;;
11771;SDS011;12556;55.748;13.194;2024-01-25T04:28:50;26.60;;;6.37;;
11771;SDS011;12556;55.748;13.194;2024-01-25T04:31:17;25.23;;;6.43;;
11771;SDS011;12556;55.748;13.194;2024-01-25T04:33:44;21.70;;;6.07;;
11771;SDS011;12556;55.748;13.194;2024-01-25T04:36:11;25.70;;;5.87;;
11771;SDS011;12556;55.748;13.194;2024-01-25T04:38:38;18.43;;;5.73;;
11771;SDS011;12556;55.748;13.194;2024-01-25T04:41:06;16.50;;;6.27;;
11771;SDS011;12556;55.748;13.194;2024-01-25T04:43:36;21.67;;;5.60;;
11771;SDS011;12556;55.748;13.194;2024-01-25T04:46:03;31.53;;;7.10;;
11771;SDS011;12556;55.748;13.194;2024-01-25T04:48:30;19.83;;;6.27;;
11771;SDS011;12556;55.748;13.194;2024-01-25T04:50:57;21.67;;;6.20;;
11771;SDS011;12556;55.748;13.194;2024-01-25T04:53:24;21.10;;;5.83;;
11771;SDS011;12556;55.748;13.194;2024-01-25T04:55:53;21.93;;;6.33;;
11771;SDS011;12556;55.748;13.194;2024-01-25T04:58:22;23.07;;;6.00;;
11771;SDS011;12556;55.748;13.194;2024-01-25T05:00:48;24.37;;;6.80;;
11771;SDS011;12556;55.748;13.194;2024-01-25T05:03:17;23.43;;;5.57;;
11771;SDS011;12556;55.748;13.194;2024-01-25T05:05:44;18.63;;;5.90;;
11771;SDS011;12556;55.748;13.194;2024-01-25T05:08:11;19.53;;;6.30;;
11771;SDS011;12556;55.748;13.194;2024-01-25T05:10:38;22.20;;;6.30;;
11771;SDS011;12556;55.748;13.194;2024-01-25T05:13:05;20.63;;;5.40;;
11771;SDS011;12556;55.748;13.194;2024-01-25T05:15:33;20.60;;;6.20;;
11771;SDS011;12556;55.748;13.194;2024-01-25T05:17:59;20.80;;;5.73;;
11771;SDS011;12556;55.748;13.194;2024-01-25T05:20:25;23.70;;;5.93;;
11771;SDS011;12556;55.748;13.194;2024-01-25T05:22:57;22.47;;;5.63;;
11771;SDS011;12556;55.748;13.194;2024-01-25T05:25:24;18.33;;;5.23;;
11771;SDS011;12556;55.748;13.194;2024-01-25T05:27:51;17.83;;;5.60;;
11771;SDS011;12556;55.748;13.194;2024-01-25T05:30:18;18.60;;;5.70;;
11771;SDS011;12556;55.748;13.194;2024-01-25T05:32:46;24.17;;;6.13;;
11771;SDS011;12556;55.748;13.194;2024-01-25T05:35:14;16.63;;;5.77;;
11771;SDS011;12556;55.748;13.194;2024-01-25T05:37:42;20.57;;;6.00;;
11771;SDS011;12556;55.748;13.194;2024-01-25T05:40:09;18.83;;;6.03;;
11771;SDS011;12556;55.748;13.194;2024-01-25T05:42:36;17.03;;;5.50;;
11771;SDS011;12556;55.748;13.194;2024-01-25T05:45:04;14.63;;;5.43;;
11771;SDS011;12556;55.748;13.194;2024-01-25T05:47:31;22.20;;;6.43;;
11771;SDS011;12556;55.748;13.194;2024-01-25T05:50:00;20.43;;;5.53;;
11771;SDS011;12556;55.748;13.194;2024-01-25T05:52:27;19.90;;;5.93;;
11771;SDS011;12556;55.748;13.194;2024-01-25T05:54:55;23.23;;;5.83;;
11771;SDS011;12556;55.748;13.194;2024-01-25T05:57:21;17.03;;;5.37;;
11771;SDS011;12556;55.748;13.194;2024-01-25T05:59:48;16.50;;;5.17;;
11771;SDS011;12556;55.748;13.194;2024-01-25T06:02:15;25.53;;;5.33;;
11771;SDS011;12556;55.748;13.194;2024-01-25T06:04:42;29.63;;;6.17;;
11771;SDS011;12556;55.748;13.194;2024-01-25T06:07:10;23.90;;;5.40;;
11771;SDS011;12556;55.748;13.194;2024-01-25T06:09:37;22.53;;;5.63;;
11771;SDS011;12556;55.748;13.194;2024-01-25T06:12:04;24.43;;;5.47;;
11771;SDS011;12556;55.748;13.194;2024-01-25T06:14:31;18.43;;;5.83;;
11771;SDS011;12556;55.748;13.194;2024-01-25T06:16:58;19.87;;;5.97;;
11771;SDS011;12556;55.748;13.194;2024-01-25T06:19:24;22.50;;;6.03;;
11771;SDS011;12556;55.748;13.194;2024-01-25T06:21:51;23.40;;;5.63;;
11771;SDS011;12556;55.748;13.194;2024-01-25T06:24:19;22.90;;;6.30;;
11771;SDS011;12556;55.748;13.194;2024-01-25T06:26:46;15.73;;;5.43;;
11771;SDS011;12556;55.748;13.194;2024-01-25T06:29:13;17.87;;;5.60;;
11771;SDS011;12556;55.748;13.194;2024-01-25T06:31:41;19.60;;;5.00;;
11771;SDS011;12556;55.748;13.194;2024-01-25T06:34:09;23.47;;;5.40;;
11771;SDS011;12556;55.748;13.194;2024-01-25T06:36:36;22.73;;;5.00;;
11771;SDS011;12556;55.748;13.194;2024-01-25T06:39:03;23.30;;;6.17;;
11771;SDS011;12556;55.748;13.194;2024-01-25T06:41:32;19.57;;;5.30;;
11771;SDS011;12556;55.748;13.194;2024-01-25T06:43:59;14.23;;;4.70;;
11771;SDS011;12556;55.748;13.194;2024-01-25T06:46:26;22.23;;;5.07;;
11771;SDS011;12556;55.748;13.194;2024-01-25T06:48:53;20.77;;;5.10;;
11771;SDS011;12556;55.748;13.194;2024-01-25T06:51:19;20.67;;;6.80;;
11771;SDS011;12556;55.748;13.194;2024-01-25T06:53:46;22.80;;;5.90;;
11771;SDS011;12556;55.748;13.194;2024-01-25T06:56:13;25.30;;;6.03;;
11771;SDS011;12556;55.748;13.194;2024-01-25T06:58:41;22.57;;;5.87;;
11771;SDS011;12556;55.748;13.194;2024-01-25T07:01:08;20.50;;;5.30;;
11771;SDS011;12556;55.748;13.194;2024-01-25T07:03:35;24.17;;;5.70;;
11771;SDS011;12556;55.748;13.194;2024-01-25T07:06:02;23.17;;;5.57;;
11771;SDS011;12556;55.748;13.194;2024-01-25T07:08:29;22.47;;;5.73;;
11771;SDS011;12556;55.748;13.194;2024-01-25T07:10:56;18.47;;;5.37;;
11771;SDS011;12556;55.748;13.194;2024-01-25T07:13:24;24.30;;;6.27;;
11771;SDS011;12556;55.748;13.194;2024-01-25T07:15:52;23.77;;;5.00;;
11771;SDS011;12556;55.748;13.194;2024-01-25T07:18:19;23.07;;;5.03;;
11771;SDS011;12556;55.748;13.194;2024-01-25T07:20:47;24.07;;;5.53;;
11771;SDS011;12556;55.748;13.194;2024-01-25T07:23:14;20.40;;;4.60;;
11771;SDS011;12556;55.748;13.194;2024-01-25T07:25:41;16.47;;;5.43;;
11771;SDS011;12556;55.748;13.194;2024-01-25T07:28:08;17.53;;;4.63;;
11771;SDS011;12556;55.748;13.194;2024-01-25T07:30:35;20.17;;;6.00;;
11771;SDS011;12556;55.748;13.194;2024-01-25T07:33:03;21.67;;;5.40;;
11771;SDS011;12556;55.748;13.194;2024-01-25T07:35:31;21.13;;;5.17;;
11771;SDS011;12556;55.748;13.194;2024-01-25T07:37:58;19.27;;;5.97;;
11771;SDS011;12556;55.748;13.194;2024-01-25T07:40:25;19.87;;;5.37;;
11771;SDS011;12556;55.748;13.194;2024-01-25T07:42:51;23.13;;;5.57;;
11771;SDS011;12556;55.748;13.194;2024-01-25T07:45:18;24.60;;;5.50;;
11771;SDS011;12556;55.748;13.194;2024-01-25T07:47:45;18.40;;;5.00;;
11771;SDS011;12556;55.748;13.194;2024-01-25T07:50:13;16.90;;;4.67;;
11771;SDS011;12556;55.748;13.194;2024-01-25T07:52:40;21.83;;;5.63;;
11771;SDS011;12556;55.748;13.194;2024-01-25T07:55:07;15.93;;;4.57;;
11771;SDS011;12556;55.748;13.194;2024-01-25T07:57:34;18.87;;;6.03;;
11771;SDS011;12556;55.748;13.194;2024-01-25T08:00:01;27.03;;;6.47;;
11771;SDS011;12556;55.748;13.194;2024-01-25T08:02:30;20.23;;;5.30;;
11771;SDS011;12556;55.748;13.194;2024-01-25T08:04:57;26.07;;;5.90;;
11771;SDS011;12556;55.748;13.194;2024-01-25T08:07:25;24.17;;;6.00;;
11771;SDS011;12556;55.748;13.194;2024-01-25T08:09:51;26.77;;;6.20;;
11771;SDS011;12556;55.748;13.194;2024-01-25T08:12:21;24.17;;;5.37;;
11771;SDS011;12556;55.748;13.194;2024-01-25T08:14:47;16.77;;;4.93;;
11771;SDS011;12556;55.748;13.194;2024-01-25T08:17:14;18.90;;;5.27;;
11771;SDS011;12556;55.748;13.194;2024-01-25T08:19:41;17.77;;;4.97;;
11771;SDS011;12556;55.748;13.194;2024-01-25T08:22:08;18.83;;;5.33;;
11771;SDS011;12556;55.748;13.194;2024-01-25T08:24:36;26.97;;;5.63;;
11771;SDS011;12556;55.748;13.194;2024-01-25T08:27:04;24.83;;;4.83;;
11771;SDS011;12556;55.748;13.194;2024-01-25T08:29:32;13.60;;;4.53;;
11771;SDS011;12556;55.748;13.194;2024-01-25T08:31:59;23.80;;;5.73;;
11771;SDS011;12556;55.748;13.194;2024-01-25T08:34:26;17.53;;;4.70;;
11771;SDS011;12556;55.748;13.194;2024-01-25T08:36:52;24.23;;;5.00;;
11771;SDS011;12556;55.748;13.194;2024-01-25T08:39:19;23.33;;;4.80;;
11771;SDS011;12556;55.748;13.194;2024-01-25T08:41:47;15.20;;;4.00;;
11771;SDS011;12556;55.748;13.194;2024-01-25T08:44:15;13.70;;;4.23;;
11771;SDS011;12556;55.748;13.194;2024-01-25T08:46:42;14.90;;;5.03;;
11771;SDS011;12556;55.748;13.194;2024-01-25T08:49:09;11.40;;;3.93;;
11771;SDS011;12556;55.748;13.194;2024-01-25T08:51:37;19.90;;;4.60;;
11771;SDS011;12556;55.748;13.194;2024-01-25T08:54:04;9.70;;;3.67;;
11771;SDS011;12556;55.748;13.194;2024-01-25T08:56:31;11.97;;;3.90;;
11771;SDS011;12556;55.748;13.194;2024-01-25T08:58:59;15.40;;;3.57;;
11771;SDS011;12556;55.748;13.194;2024-01-25T09:01:25;10.13;;;3.37;;
11771;SDS011;12556;55.748;13.194;2024-01-25T09:03:53;15.30;;;3.70;;
11771;SDS011;12556;55.748;13.194;2024-01-25T09:06:19;9.20;;;3.13;;
11771;SDS011;12556;55.748;13.194;2024-01-25T09:08:46;10.03;;;2.90;;
11771;SDS011;12556;55.748;13.194;2024-01-25T09:11:13;7.13;;;2.87;;
11771;SDS011;12556;55.748;13.194;2024-01-25T09:13:40;11.60;;;2.50;;
11771;SDS011;12556;55.748;13.194;2024-01-25T09:16:11;6.93;;;2.10;;
11771;SDS011;12556;55.748;13.194;2024-01-25T09:18:38;4.13;;;2.13;;
11771;SDS011;12556;55.748;13.194;2024-01-25T09:21:05;7.30;;;2.90;;
11771;SDS011;12556;55.748;13.194;2024-01-25T09:23:31;5.47;;;2.00;;
11771;SDS011;12556;55.748;13.194;2024-01-25T09:25:58;7.70;;;2.30;;
11771;SDS011;12556;55.748;13.194;2024-01-25T09:28:25;5.00;;;2.20;;
11771;SDS011;12556;55.748;13.194;2024-01-25T09:30:52;8.13;;;2.50;;
11771;SDS011;12556;55.748;13.194;2024-01-25T09:33:20;5.87;;;1.87;;
11771;SDS011;12556;55.748;13.194;2024-01-25T09:35:47;3.63;;;2.33;;
11771;SDS011;12556;55.748;13.194;2024-01-25T09:38:16;9.57;;;2.60;;
11771;SDS011;12556;55.748;13.194;2024-01-25T09:40:43;5.10;;;2.47;;
11771;SDS011;12556;55.748;13.194;2024-01-25T09:43:10;3.57;;;2.13;;
11771;SDS011;12556;55.748;13.194;2024-01-25T09:45:37;5.70;;;2.33;;
11771;SDS011;12556;55.748;13.194;2024-01-25T09:48:05;4.30;;;2.70;;
11771;SDS011;12556;55.748;13.194;2024-01-25T09:50:34;6.53;;;2.73;;
11771;SDS011;12556;55.748;13.194;2024-01-25T09:53:02;8.10;;;2.70;;
11771;SDS011;12556;55.748;13.194;2024-01-25T09:55:32;7.07;;;2.80;;
11771;SDS011;12556;55.748;13.194;2024-01-25T09:58:05;9.40;;;2.77;;
11771;SDS011;12556;55.748;13.194;2024-01-25T10:00:33;7.87;;;2.60;;
11771;SDS011;12556;55.748;13.194;2024-01-25T10:03:00;5.50;;;2.40;;
11771;SDS011;12556;55.748;13.194;2024-01-25T10:05:27;8.60;;;3.07;;
11771;SDS011;12556;55.748;13.194;2024-01-25T10:07:56;7.53;;;2.57;;
11771;SDS011;12556;55.748;13.194;2024-01-25T10:10:26;8.40;;;3.17;;
11771;SDS011;12556;55.748;13.194;2024-01-25T10:12:54;7.87;;;2.60;;
11771;SDS011;12556;55.748;13.194;2024-01-25T10:15:23;5.83;;;2.60;;
11771;SDS011;12556;55.748;13.194;2024-01-25T10:17:50;6.27;;;2.60;;
11771;SDS011;12556;55.748;13.194;2024-01-25T10:20:17;10.83;;;3.00;;
11771;SDS011;12556;55.748;13.194;2024-01-25T10:22:46;5.60;;;2.43;;
11771;SDS011;12556;55.748;13.194;2024-01-25T10:25:14;6.77;;;3.20;;
11771;SDS011;12556;55.748;13.194;2024-01-25T10:27:41;6.87;;;2.20;;
11771;SDS011;12556;55.748;13.194;2024-01-25T10:30:08;7.07;;;2.77;;
11771;SDS011;12556;55.748;13.194;2024-01-25T10:32:37;5.50;;;2.07;;
11771;SDS011;12556;55.748;13.194;2024-01-25T10:35:05;6.53;;;2.77;;
11771;SDS011;12556;55.748;13.194;2024-01-25T10:37:33;8.40;;;2.93;;
11771;SDS011;12556;55.748;13.194;2024-01-25T10:40:00;7.53;;;2.97;;
11771;SDS011;12556;55.748;13.194;2024-01-25T10:42:29;5.57;;;2.30;;
11771;SDS011;12556;55.748;13.194;2024-01-25T10:44:56;7.50;;;2.13;;
11771;SDS011;12556;55.748;13.194;2024-01-25T10:47:23;5.13;;;2.30;;
11771;SDS011;12556;55.748;13.194;2024-01-25T10:49:50;7.37;;;2.20;;
11771;SDS011;12556;55.748;13.194;2024-01-25T10:52:18;6.10;;;2.10;;
11771;SDS011;12556;55.748;13.194;2024-01-25T10:54:46;8.70;;;2.13;;
11771;SDS011;12556;55.748;13.194;2024-01-25T10:57:12;4.80;;;2.17;;
11771;SDS011;12556;55.748;13.194;2024-01-25T10:59:41;4.83;;;2.30;;
11771;SDS011;12556;55.748;13.194;2024-01-25T11:02:08;5.90;;;1.93;;
11771;SDS011;12556;55.748;13.194;2024-01-25T11:04:35;9.57;;;2.07;;
11771;SDS011;12556;55.748;13.194;2024-01-25T11:07:06;4.50;;;1.97;;
11771;SDS011;12556;55.748;13.194;2024-01-25T11:09:34;5.10;;;2.10;;
11771;SDS011;12556;55.748;13.194;2024-01-25T11:12:08;4.67;;;1.73;;
11771;SDS011;12556;55.748;13.194;2024-01-25T11:14:37;4.93;;;1.53;;
11771;SDS011;12556;55.748;13.194;2024-01-25T11:17:15;4.30;;;2.23;;
11771;SDS011;12556;55.748;13.194;2024-01-25T11:19:45;4.37;;;2.07;;
11771;SDS011;12556;55.748;13.194;2024-01-25T11:22:11;4.17;;;1.90;;
11771;SDS011;12556;55.748;13.194;2024-01-25T11:24:38;3.67;;;1.30;;
11771;SDS011;12556;55.748;13.194;2024-01-25T11:27:07;3.73;;;1.73;;
11771;SDS011;12556;55.748;13.194;2024-01-25T11:29:35;3.83;;;1.40;;
11771;SDS011;12556;55.748;13.194;2024-01-25T11:32:04;3.53;;;1.37;;
11771;SDS011;12556;55.748;13.194;2024-01-25T11:34:33;4.80;;;1.50;;
11771;SDS011;12556;55.748;13.194;2024-01-25T11:37:01;2.97;;;1.30;;
11771;SDS011;12556;55.748;13.194;2024-01-25T11:39:28;2.70;;;1.40;;
11771;SDS011;12556;55.748;13.194;2024-01-25T11:41:55;4.07;;;1.47;;
11771;SDS011;12556;55.748;13.194;2024-01-25T11:44:21;2.30;;;1.47;;
11771;SDS011;12556;55.748;13.194;2024-01-25T11:46:49;3.47;;;1.50;;
11771;SDS011;12556;55.748;13.194;2024-01-25T11:49:16;4.07;;;1.20;;
11771;SDS011;12556;55.748;13.194;2024-01-25T11:51:44;3.47;;;1.50;;
11771;SDS011;12556;55.748;13.194;2024-01-25T11:54:11;2.17;;;1.30;;
11771;SDS011;12556;55.748;13.194;2024-01-25T11:56:38;4.23;;;1.50;;
11771;SDS011;12556;55.748;13.194;2024-01-25T11:59:07;1.93;;;1.40;;
11771;SDS011;12556;55.748;13.194;2024-01-25T12:01:34;7.63;;;1.50;;
11771;SDS011;12556;55.748;13.194;2024-01-25T12:04:01;2.37;;;1.53;;
11771;SDS011;12556;55.748;13.194;2024-01-25T12:06:29;2.63;;;1.30;;
11771;SDS011;12556;55.748;13.194;2024-01-25T12:09:06;5.03;;;2.00;;
11771;SDS011;12556;55.748;13.194;2024-01-25T12:11:34;2.53;;;1.50;;
11771;SDS011;12556;55.748;13.194;2024-01-25T12:14:01;2.20;;;1.07;;
11771;SDS011;12556;55.748;13.194;2024-01-25T12:16:28;5.13;;;1.50;;
11771;SDS011;12556;55.748;13.194;2024-01-25T12:18:55;2.50;;;1.10;;
11771;SDS011;12556;55.748;13.194;2024-01-25T12:21:22;4.03;;;1.30;;
11771;SDS011;12556;55.748;13.194;2024-01-25T12:23:50;3.13;;;1.30;;
11771;SDS011;12556;55.748;13.194;2024-01-25T12:26:18;3.87;;;1.20;;
11771;SDS011;12556;55.748;13.194;2024-01-25T12:28:45;2.77;;;1.57;;
11771;SDS011;12556;55.748;13.194;2024-01-25T12:31:14;2.00;;;1.40;;
11771;SDS011;12556;55.748;13.194;2024-01-25T12:33:41;1.00;;;0.80;;
11771;SDS011;12556;55.748;13.194;2024-01-25T12:36:08;4.30;;;1.40;;
11771;SDS011;12556;55.748;13.194;2024-01-25T12:38:36;4.07;;;1.20;;
11771;SDS011;12556;55.748;13.194;2024-01-25T12:41:02;4.57;;;1.57;;
11771;SDS011;12556;55.748;13.194;2024-01-25T12:43:31;3.10;;;1.43;;
11771;SDS011;12556;55.748;13.194;2024-01-25T12:45:58;3.27;;;1.83;;
11771;SDS011;12556;55.748;13.194;2024-01-25T12:48:25;5.07;;;2.47;;
11771;SDS011;12556;55.748;13.194;2024-01-25T12:50:51;4.50;;;1.80;;
11771;SDS011;12556;55.748;13.194;2024-01-25T12:53:18;4.20;;;1.77;;
11771;SDS011;12556;55.748;13.194;2024-01-25T12:55:45;4.73;;;1.77;;
11771;SDS011;12556;55.748;13.194;2024-01-25T12:58:12;4.87;;;1.60;;
11771;SDS011;12556;55.748;13.194;2024-01-25T13:00:40;4.30;;;1.77;;
11771;SDS011;12556;55.748;13.194;2024-01-25T13:03:08;5.23;;;1.80;;
11771;SDS011;12556;55.748;13.194;2024-01-25T13:05:35;6.63;;;1.50;;
11771;SDS011;12556;55.748;13.194;2024-01-25T13:08:04;4.43;;;1.80;;
11771;SDS011;12556;55.748;13.194;2024-01-25T13:10:31;3.27;;;1.60;;
11771;SDS011;12556;55.748;13.194;2024-01-25T13:12:58;3.10;;;1.57;;
11771;SDS011;12556;55.748;13.194;2024-01-25T13:15:25;5.23;;;1.57;;
11771;SDS011;12556;55.748;13.194;2024-01-25T13:17:53;3.00;;;1.43;;
11771;SDS011;12556;55.748;13.194;2024-01-25T13:20:20;2.00;;;1.30;;
11771;SDS011;12556;55.748;13.194;2024-01-25T13:22:47;2.40;;;1.40;;
11771;SDS011;12556;55.748;13.194;2024-01-25T13:25:14;4.03;;;1.50;;
11771;SDS011;12556;55.748;13.194;2024-01-25T13:27:40;6.63;;;1.67;;
11771;SDS011;12556;55.748;13.194;2024-01-25T13:30:08;2.10;;;1.27;;
11771;SDS011;12556;55.748;13.194;2024-01-25T13:32:36;5.27;;;1.50;;
11771;SDS011;12556;55.748;13.194;2024-01-25T13:35:05;3.63;;;1.23;;
11771;SDS011;12556;55.748;13.194;2024-01-25T13:37:32;2.57;;;1.20;;
11771;SDS011;12556;55.748;13.194;2024-01-25T13:39:59;3.23;;;1.37;;
11771;SDS011;12556;55.748;13.194;2024-01-25T13:42:26;6.17;;;1.50;;
11771;SDS011;12556;55.748;13.194;2024-01-25T13:44:52;6.30;;;1.60;;
11771;SDS011;12556;55.748;13.194;2024-01-25T13:47:19;2.23;;;1.30;;
11771;SDS011;12556;55.748;13.194;2024-01-25T13:49:47;4.70;;;1.63;;
11771;SDS011;12556;55.748;13.194;2024-01-25T13:52:18;1.93;;;1.70;;
11771;SDS011;12556;55.748;13.194;2024-01-25T13:54:45;3.23;;;1.40;;
11771;SDS011;12556;55.748;13.194;2024-01-25T13:57:14;7.43;;;2.13;;
11771;SDS011;12556;55.748;13.194;2024-01-25T13:59:41;3.07;;;1.33;;
11771;SDS011;12556;55.748;13.194;2024-01-25T14:02:08;3.83;;;1.40;;
11771;SDS011;12556;55.748;13.194;2024-01-25T14:04:35;4.80;;;1.90;;
11771;SDS011;12556;55.748;13.194;2024-01-25T14:07:02;6.60;;;1.97;;
11771;SDS011;12556;55.748;13.194;2024-01-25T14:09:30;3.33;;;1.90;;
11771;SDS011;12556;55.748;13.194;2024-01-25T14:11:57;3.70;;;1.57;;
11771;SDS011;12556;55.748;13.194;2024-01-25T14:14:24;6.63;;;1.60;;
11771;SDS011;12556;55.748;13.194;2024-01-25T14:16:50;2.83;;;1.57;;
11771;SDS011;12556;55.748;13.194;2024-01-25T14:19:17;4.47;;;1.57;;
11771;SDS011;12556;55.748;13.194;2024-01-25T14:21:45;4.67;;;1.60;;
11771;SDS011;12556;55.748;13.194;2024-01-25T14:24:12;4.60;;;1.83;;
11771;SDS011;12556;55.748;13.194;2024-01-25T14:26:40;8.77;;;2.10;;